sensor_id;sensor_type;location;lat;lon;timestamp;temperature;humidity
23723;DHT22;12042;52.136;5.584;2022-07-06T05:38:17;14.90;99.90
23723;DHT22;12042;52.136;5.584;2022-07-06T05:40:44;14.90;99.90
23723;DHT22;12042;52.136;5.584;2022-07-06T05:43:09;15.00;99.90
23723;DHT22;12042;52.136;5.584;2022-07-06T05:45:35;15.00;99.90
23723;DHT22;12042;52.136;5.584;2022-07-06T05:48:00;15.00;99.90
23723;DHT22;12042;52.136;5.584;2022-07-06T05:50:44;15.00;99.90
23723;DHT22;12042;52.136;5.584;2022-07-06T05:53:10;15.00;99.90
23723;DHT22;12042;52.136;5.584;2022-07-06T05:55:36;15.00;99.90
23723;DHT22;12042;52.136;5.584;2022-07-06T05:58:02;15.10;99.90
23723;DHT22;12042;52.136;5.584;2022-07-06T06:00:28;15.10;99.90
23723;DHT22;12042;52.136;5.584;2022-07-06T06:02:54;15.10;99.90
23723;DHT22;12042;52.136;5.584;2022-07-06T06:05:20;15.10;99.90
23723;DHT22;12042;52.136;5.584;2022-07-06T06:07:46;15.20;99.90
23723;DHT22;12042;52.136;5.584;2022-07-06T06:10:14;15.30;99.90
23723;DHT22;12042;52.136;5.584;2022-07-06T06:12:41;15.30;99.90
23723;DHT22;12042;52.136;5.584;2022-07-06T06:15:07;15.40;99.90
23723;DHT22;12042;52.136;5.584;2022-07-06T06:17:34;15.50;99.90
23723;DHT22;12042;52.136;5.584;2022-07-06T06:20:00;15.60;99.90
23723;DHT22;12042;52.136;5.584;2022-07-06T06:22:26;15.70;99.90
23723;DHT22;12042;52.136;5.584;2022-07-06T06:24:51;15.70;99.90
23723;DHT22;12042;52.136;5.584;2022-07-06T06:27:17;15.80;99.90
23723;DHT22;12042;52.136;5.584;2022-07-06T06:29:43;15.80;99.90
23723;DHT22;12042;52.136;5.584;2022-07-06T06:32:10;15.90;99.90
23723;DHT22;12042;52.136;5.584;2022-07-06T06:34:36;16.00;99.90
23723;DHT22;12042;52.136;5.584;2022-07-06T06:37:02;16.10;99.90
23723;DHT22;12042;52.136;5.584;2022-07-06T06:39:27;16.10;99.90
23723;DHT22;12042;52.136;5.584;2022-07-06T06:41:53;16.20;99.90
23723;DHT22;12042;52.136;5.584;2022-07-06T06:44:18;16.10;99.90
23723;DHT22;12042;52.136;5.584;2022-07-06T06:46:44;16.10;99.90
23723;DHT22;12042;52.136;5.584;2022-07-06T06:49:10;16.10;99.90
23723;DHT22;12042;52.136;5.584;2022-07-06T06:51:36;16.10;99.90
23723;DHT22;12042;52.136;5.584;2022-07-06T06:54:04;16.20;99.90
23723;DHT22;12042;52.136;5.584;2022-07-06T06:56:29;16.20;99.90
23723;DHT22;12042;52.136;5.584;2022-07-06T06:58:55;16.30;99.90
23723;DHT22;12042;52.136;5.584;2022-07-06T07:01:20;16.30;99.90
23723;DHT22;12042;52.136;5.584;2022-07-06T07:03:46;16.40;99.90
23723;DHT22;12042;52.136;5.584;2022-07-06T07:06:12;16.50;99.90
23723;DHT22;12042;52.136;5.584;2022-07-06T07:08:38;16.60;99.90
23723;DHT22;12042;52.136;5.584;2022-07-06T07:11:03;16.70;99.90
23723;DHT22;12042;52.136;5.584;2022-07-06T07:13:29;16.80;99.90
23723;DHT22;12042;52.136;5.584;2022-07-06T07:15:54;16.90;99.90
23723;DHT22;12042;52.136;5.584;2022-07-06T07:18:20;16.90;99.90
23723;DHT22;12042;52.136;5.584;2022-07-06T07:20:46;17.00;99.90
23723;DHT22;12042;52.136;5.584;2022-07-06T07:23:11;17.00;99.90
23723;DHT22;12042;52.136;5.584;2022-07-06T07:25:37;17.00;99.90
23723;DHT22;12042;52.136;5.584;2022-07-06T07:28:05;17.10;99.90
23723;DHT22;12042;52.136;5.584;2022-07-06T07:30:30;17.20;99.90
23723;DHT22;12042;52.136;5.584;2022-07-06T07:32:56;17.30;99.90
23723;DHT22;12042;52.136;5.584;2022-07-06T07:35:22;17.40;99.90
23723;DHT22;12042;52.136;5.584;2022-07-06T07:37:48;17.50;99.90
23723;DHT22;12042;52.136;5.584;2022-07-06T07:40:14;17.50;99.90
23723;DHT22;12042;52.136;5.584;2022-07-06T07:42:39;17.60;99.90
23723;DHT22;12042;52.136;5.584;2022-07-06T07:45:07;17.70;99.90
23723;DHT22;12042;52.136;5.584;2022-07-06T07:47:33;17.70;99.90
23723;DHT22;12042;52.136;5.584;2022-07-06T07:49:59;17.80;99.90
23723;DHT22;12042;52.136;5.584;2022-07-06T07:52:25;17.80;99.90
23723;DHT22;12042;52.136;5.584;2022-07-06T07:54:51;17.80;99.90
23723;DHT22;12042;52.136;5.584;2022-07-06T07:57:16;18.00;99.90
23723;DHT22;12042;52.136;5.584;2022-07-06T07:59:42;18.10;99.90
23723;DHT22;12042;52.136;5.584;2022-07-06T08:02:08;18.30;99.90
23723;DHT22;12042;52.136;5.584;2022-07-06T08:04:33;18.50;99.90
23723;DHT22;12042;52.136;5.584;2022-07-06T08:06:59;18.60;99.90
23723;DHT22;12042;52.136;5.584;2022-07-06T08:09:24;18.80;99.90
23723;DHT22;12042;52.136;5.584;2022-07-06T08:11:50;19.00;99.90
23723;DHT22;12042;52.136;5.584;2022-07-06T08:14:16;19.30;99.90
23723;DHT22;12042;52.136;5.584;2022-07-06T08:16:42;19.30;99.90
23723;DHT22;12042;52.136;5.584;2022-07-06T08:19:08;19.30;99.90
23723;DHT22;12042;52.136;5.584;2022-07-06T08:21:34;19.30;99.90
23723;DHT22;12042;52.136;5.584;2022-07-06T08:23:59;19.20;99.90
23723;DHT22;12042;52.136;5.584;2022-07-06T08:26:26;19.30;99.90
23723;DHT22;12042;52.136;5.584;2022-07-06T08:28:52;19.50;99.90
23723;DHT22;12042;52.136;5.584;2022-07-06T08:31:17;19.60;99.90
23723;DHT22;12042;52.136;5.584;2022-07-06T08:33:43;19.80;99.90
23723;DHT22;12042;52.136;5.584;2022-07-06T08:36:09;20.00;99.90
23723;DHT22;12042;52.136;5.584;2022-07-06T08:38:34;20.20;99.90
23723;DHT22;12042;52.136;5.584;2022-07-06T08:41:00;20.10;99.90
23723;DHT22;12042;52.136;5.584;2022-07-06T08:43:26;20.00;99.90
23723;DHT22;12042;52.136;5.584;2022-07-06T08:45:53;19.90;99.90
23723;DHT22;12042;52.136;5.584;2022-07-06T08:48:22;19.80;99.90
23723;DHT22;12042;52.136;5.584;2022-07-06T08:50:48;19.90;99.90
23723;DHT22;12042;52.136;5.584;2022-07-06T08:53:16;20.00;99.90
23723;DHT22;12042;52.136;5.584;2022-07-06T08:55:42;20.00;99.90
23723;DHT22;12042;52.136;5.584;2022-07-06T08:58:08;20.00;99.90
23723;DHT22;12042;52.136;5.584;2022-07-06T09:00:34;19.90;99.90
23723;DHT22;12042;52.136;5.584;2022-07-06T09:03:01;19.80;99.90
23723;DHT22;12042;52.136;5.584;2022-07-06T09:05:28;19.60;99.90
23723;DHT22;12042;52.136;5.584;2022-07-06T09:07:55;19.60;99.90
23723;DHT22;12042;52.136;5.584;2022-07-06T09:10:21;19.90;99.90
23723;DHT22;12042;52.136;5.584;2022-07-06T09:12:48;20.20;99.90
23723;DHT22;12042;52.136;5.584;2022-07-06T09:15:14;20.60;99.90
23723;DHT22;12042;52.136;5.584;2022-07-06T09:17:41;20.80;99.90
23723;DHT22;12042;52.136;5.584;2022-07-06T09:20:09;20.90;99.90
23723;DHT22;12042;52.136;5.584;2022-07-06T09:22:34;20.70;99.90
23723;DHT22;12042;52.136;5.584;2022-07-06T09:25:11;20.80;99.90
23723;DHT22;12042;52.136;5.584;2022-07-06T09:27:45;21.10;99.90
23723;DHT22;12042;52.136;5.584;2022-07-06T09:30:17;21.30;99.90
23723;DHT22;12042;52.136;5.584;2022-07-06T09:32:44;21.40;99.90
23723;DHT22;12042;52.136;5.584;2022-07-06T09:35:29;21.50;99.90
23723;DHT22;12042;52.136;5.584;2022-07-06T09:38:11;21.60;99.90
23723;DHT22;12042;52.136;5.584;2022-07-06T09:40:44;21.60;99.90
23723;DHT22;12042;52.136;5.584;2022-07-06T09:43:13;21.50;99.90
23723;DHT22;12042;52.136;5.584;2022-07-06T09:45:40;21.50;99.90
23723;DHT22;12042;52.136;5.584;2022-07-06T09:50:44;21.50;99.90
23723;DHT22;12042;52.136;5.584;2022-07-06T09:53:11;21.50;99.90
23723;DHT22;12042;52.136;5.584;2022-07-06T09:55:37;21.40;99.90
23723;DHT22;12042;52.136;5.584;2022-07-06T09:58:03;21.40;99.90
23723;DHT22;12042;52.136;5.584;2022-07-06T10:00:29;21.30;99.90
23723;DHT22;12042;52.136;5.584;2022-07-06T10:02:54;21.20;99.90
23723;DHT22;12042;52.136;5.584;2022-07-06T10:05:21;21.30;99.90
23723;DHT22;12042;52.136;5.584;2022-07-06T10:07:54;21.30;99.90
23723;DHT22;12042;52.136;5.584;2022-07-06T10:10:22;21.30;99.90
23723;DHT22;12042;52.136;5.584;2022-07-06T10:12:49;21.40;99.90
23723;DHT22;12042;52.136;5.584;2022-07-06T10:15:16;21.50;99.90
23723;DHT22;12042;52.136;5.584;2022-07-06T10:17:44;21.50;99.90
23723;DHT22;12042;52.136;5.584;2022-07-06T10:20:11;21.40;99.90
23723;DHT22;12042;52.136;5.584;2022-07-06T10:22:39;21.20;99.90
23723;DHT22;12042;52.136;5.584;2022-07-06T10:25:05;21.10;99.90
23723;DHT22;12042;52.136;5.584;2022-07-06T10:27:32;21.00;99.90
23723;DHT22;12042;52.136;5.584;2022-07-06T10:29:58;21.00;99.90
23723;DHT22;12042;52.136;5.584;2022-07-06T10:32:24;21.20;99.90
23723;DHT22;12042;52.136;5.584;2022-07-06T10:34:51;21.40;99.90
23723;DHT22;12042;52.136;5.584;2022-07-06T10:37:24;21.60;99.90
23723;DHT22;12042;52.136;5.584;2022-07-06T10:39:51;22.00;99.90
23723;DHT22;12042;52.136;5.584;2022-07-06T10:42:46;22.20;99.90
23723;DHT22;12042;52.136;5.584;2022-07-06T10:45:17;22.30;99.90
23723;DHT22;12042;52.136;5.584;2022-07-06T10:47:45;22.40;99.90
23723;DHT22;12042;52.136;5.584;2022-07-06T10:50:11;22.70;99.90
23723;DHT22;12042;52.136;5.584;2022-07-06T10:53:14;22.60;99.90
23723;DHT22;12042;52.136;5.584;2022-07-06T10:55:45;22.30;99.90
23723;DHT22;12042;52.136;5.584;2022-07-06T10:58:38;21.90;99.90
23723;DHT22;12042;52.136;5.584;2022-07-06T11:01:08;21.80;99.90
23723;DHT22;12042;52.136;5.584;2022-07-06T11:06:06;22.50;99.90
23723;DHT22;12042;52.136;5.584;2022-07-06T11:09:01;22.90;99.90
23723;DHT22;12042;52.136;5.584;2022-07-06T11:14:15;22.40;99.90
23723;DHT22;12042;52.136;5.584;2022-07-06T11:19:22;22.20;99.90
23723;DHT22;12042;52.136;5.584;2022-07-06T11:22:04;22.40;99.90
23723;DHT22;12042;52.136;5.584;2022-07-06T11:24:32;22.90;99.90
23723;DHT22;12042;52.136;5.584;2022-07-06T11:26:59;22.80;99.90
23723;DHT22;12042;52.136;5.584;2022-07-06T11:29:27;23.20;99.90
23723;DHT22;12042;52.136;5.584;2022-07-06T11:32:00;23.20;99.90
23723;DHT22;12042;52.136;5.584;2022-07-06T11:34:33;23.30;99.90
23723;DHT22;12042;52.136;5.584;2022-07-06T11:37:04;23.30;99.90
23723;DHT22;12042;52.136;5.584;2022-07-06T11:39:32;23.30;99.90
23723;DHT22;12042;52.136;5.584;2022-07-06T11:41:59;23.50;99.90
23723;DHT22;12042;52.136;5.584;2022-07-06T11:44:26;23.50;99.90
23723;DHT22;12042;52.136;5.584;2022-07-06T11:46:55;23.70;99.90
23723;DHT22;12042;52.136;5.584;2022-07-06T11:49:22;23.80;99.90
23723;DHT22;12042;52.136;5.584;2022-07-06T11:51:48;24.00;99.90
23723;DHT22;12042;52.136;5.584;2022-07-06T11:54:17;24.20;99.90
23723;DHT22;12042;52.136;5.584;2022-07-06T11:59:23;24.70;99.90
23723;DHT22;12042;52.136;5.584;2022-07-06T12:01:50;24.80;99.90
23723;DHT22;12042;52.136;5.584;2022-07-06T12:04:24;24.90;99.90
23723;DHT22;12042;52.136;5.584;2022-07-06T12:06:50;25.00;99.90
23723;DHT22;12042;52.136;5.584;2022-07-06T12:09:15;25.10;99.90
23723;DHT22;12042;52.136;5.584;2022-07-06T12:11:44;25.00;99.90
23723;DHT22;12042;52.136;5.584;2022-07-06T12:14:16;24.90;99.90
23723;DHT22;12042;52.136;5.584;2022-07-06T12:16:43;24.80;99.90
23723;DHT22;12042;52.136;5.584;2022-07-06T12:19:09;24.90;99.90
23723;DHT22;12042;52.136;5.584;2022-07-06T12:21:51;24.80;99.70
23723;DHT22;12042;52.136;5.584;2022-07-06T12:24:24;24.60;99.50
23723;DHT22;12042;52.136;5.584;2022-07-06T12:26:51;24.20;99.90
23723;DHT22;12042;52.136;5.584;2022-07-06T12:29:18;24.10;99.90
23723;DHT22;12042;52.136;5.584;2022-07-06T12:31:52;24.30;99.90
23723;DHT22;12042;52.136;5.584;2022-07-06T12:34:23;24.20;99.90
23723;DHT22;12042;52.136;5.584;2022-07-06T12:36:54;24.10;99.90
23723;DHT22;12042;52.136;5.584;2022-07-06T12:39:26;24.00;99.60
23723;DHT22;12042;52.136;5.584;2022-07-06T12:42:03;24.00;99.90
23723;DHT22;12042;52.136;5.584;2022-07-06T12:44:33;23.90;99.60
23723;DHT22;12042;52.136;5.584;2022-07-06T12:47:08;23.80;99.90
23723;DHT22;12042;52.136;5.584;2022-07-06T12:49:35;23.80;99.90
23723;DHT22;12042;52.136;5.584;2022-07-06T12:57:22;23.80;99.90
23723;DHT22;12042;52.136;5.584;2022-07-06T13:02:23;23.70;99.90
23723;DHT22;12042;52.136;5.584;2022-07-06T13:05:10;23.80;99.90
23723;DHT22;12042;52.136;5.584;2022-07-06T13:07:38;24.10;99.40
23723;DHT22;12042;52.136;5.584;2022-07-06T13:10:05;24.10;99.40
23723;DHT22;12042;52.136;5.584;2022-07-06T13:12:31;24.20;99.90
23723;DHT22;12042;52.136;5.584;2022-07-06T13:14:57;24.40;99.20
23723;DHT22;12042;52.136;5.584;2022-07-06T13:17:23;24.30;98.60
23723;DHT22;12042;52.136;5.584;2022-07-06T13:19:49;24.20;99.00
23723;DHT22;12042;52.136;5.584;2022-07-06T13:22:15;24.20;99.10
23723;DHT22;12042;52.136;5.584;2022-07-06T13:24:42;24.20;98.80
23723;DHT22;12042;52.136;5.584;2022-07-06T13:27:08;24.10;98.60
23723;DHT22;12042;52.136;5.584;2022-07-06T13:29:34;24.10;98.40
23723;DHT22;12042;52.136;5.584;2022-07-06T13:31:59;24.10;98.20
23723;DHT22;12042;52.136;5.584;2022-07-06T13:34:26;24.00;98.70
23723;DHT22;12042;52.136;5.584;2022-07-06T13:36:55;23.90;99.00
23723;DHT22;12042;52.136;5.584;2022-07-06T13:39:21;23.80;99.10
23723;DHT22;12042;52.136;5.584;2022-07-06T13:41:46;23.80;99.60
23723;DHT22;12042;52.136;5.584;2022-07-06T13:44:12;23.60;99.20
23723;DHT22;12042;52.136;5.584;2022-07-06T13:46:38;23.60;99.60
23723;DHT22;12042;52.136;5.584;2022-07-06T13:49:08;23.60;99.60
23723;DHT22;12042;52.136;5.584;2022-07-06T13:51:33;23.70;99.60
23723;DHT22;12042;52.136;5.584;2022-07-06T13:54:00;23.80;99.70
23723;DHT22;12042;52.136;5.584;2022-07-06T13:56:26;23.80;99.70
23723;DHT22;12042;52.136;5.584;2022-07-06T13:58:52;23.80;99.20
23723;DHT22;12042;52.136;5.584;2022-07-06T14:01:18;23.80;99.10
23723;DHT22;12042;52.136;5.584;2022-07-06T14:03:44;24.00;99.10
23723;DHT22;12042;52.136;5.584;2022-07-06T14:06:10;24.10;99.20
23723;DHT22;12042;52.136;5.584;2022-07-06T14:08:37;24.10;98.80
23723;DHT22;12042;52.136;5.584;2022-07-06T14:11:04;24.10;98.10
23723;DHT22;12042;52.136;5.584;2022-07-06T14:13:30;24.00;99.10
23723;DHT22;12042;52.136;5.584;2022-07-06T14:15:56;24.00;99.60
23723;DHT22;12042;52.136;5.584;2022-07-06T14:18:22;23.90;99.00
23723;DHT22;12042;52.136;5.584;2022-07-06T14:20:49;23.90;99.90
23723;DHT22;12042;52.136;5.584;2022-07-06T14:23:15;23.90;99.40
23723;DHT22;12042;52.136;5.584;2022-07-06T14:25:41;23.80;99.70
23723;DHT22;12042;52.136;5.584;2022-07-06T14:28:07;23.60;99.30
23723;DHT22;12042;52.136;5.584;2022-07-06T14:30:34;23.50;99.40
23723;DHT22;12042;52.136;5.584;2022-07-06T14:33:06;23.50;99.90
23723;DHT22;12042;52.136;5.584;2022-07-06T14:35:37;23.40;99.60
23723;DHT22;12042;52.136;5.584;2022-07-06T14:38:03;23.30;99.90
23723;DHT22;12042;52.136;5.584;2022-07-06T14:40:30;23.30;99.90
23723;DHT22;12042;52.136;5.584;2022-07-06T14:42:56;23.20;99.90
23723;DHT22;12042;52.136;5.584;2022-07-06T14:45:22;23.00;99.90
23723;DHT22;12042;52.136;5.584;2022-07-06T14:47:48;22.90;99.90
23723;DHT22;12042;52.136;5.584;2022-07-06T14:50:14;22.80;99.90
23723;DHT22;12042;52.136;5.584;2022-07-06T14:52:39;22.90;99.90
23723;DHT22;12042;52.136;5.584;2022-07-06T14:55:05;22.90;99.90
23723;DHT22;12042;52.136;5.584;2022-07-06T14:57:31;22.90;99.90
23723;DHT22;12042;52.136;5.584;2022-07-06T14:59:56;22.80;99.90
23723;DHT22;12042;52.136;5.584;2022-07-06T15:02:22;22.80;99.90
23723;DHT22;12042;52.136;5.584;2022-07-06T15:04:47;22.70;99.90
23723;DHT22;12042;52.136;5.584;2022-07-06T15:07:13;22.80;99.90
23723;DHT22;12042;52.136;5.584;2022-07-06T15:09:38;22.80;99.90
23723;DHT22;12042;52.136;5.584;2022-07-06T15:12:05;22.70;99.90
23723;DHT22;12042;52.136;5.584;2022-07-06T15:14:33;22.60;99.90
23723;DHT22;12042;52.136;5.584;2022-07-06T15:16:58;22.60;99.90
23723;DHT22;12042;52.136;5.584;2022-07-06T15:19:24;22.60;99.90
23723;DHT22;12042;52.136;5.584;2022-07-06T15:21:50;22.60;99.90
23723;DHT22;12042;52.136;5.584;2022-07-06T15:24:16;22.60;99.90
23723;DHT22;12042;52.136;5.584;2022-07-06T15:26:42;22.40;99.90
23723;DHT22;12042;52.136;5.584;2022-07-06T15:29:07;22.00;99.90
23723;DHT22;12042;52.136;5.584;2022-07-06T15:31:33;22.10;99.90
23723;DHT22;12042;52.136;5.584;2022-07-06T15:33:59;21.80;99.90
23723;DHT22;12042;52.136;5.584;2022-07-06T15:36:24;22.40;99.90
23723;DHT22;12042;52.136;5.584;2022-07-06T15:38:50;21.90;99.90
23723;DHT22;12042;52.136;5.584;2022-07-06T15:41:15;22.30;99.90
23723;DHT22;12042;52.136;5.584;2022-07-06T15:43:42;22.20;99.90
23723;DHT22;12042;52.136;5.584;2022-07-06T15:46:08;22.20;99.90
23723;DHT22;12042;52.136;5.584;2022-07-06T15:48:33;22.10;99.90
23723;DHT22;12042;52.136;5.584;2022-07-06T15:50:59;22.10;99.90
23723;DHT22;12042;52.136;5.584;2022-07-06T15:53:26;22.20;99.90
23723;DHT22;12042;52.136;5.584;2022-07-06T15:55:51;22.20;99.90
23723;DHT22;12042;52.136;5.584;2022-07-06T15:58:17;22.10;99.90
23723;DHT22;12042;52.136;5.584;2022-07-06T16:00:43;22.00;99.90
23723;DHT22;12042;52.136;5.584;2022-07-06T16:03:09;22.30;99.90
23723;DHT22;12042;52.136;5.584;2022-07-06T16:05:35;22.00;99.90
23723;DHT22;12042;52.136;5.584;2022-07-06T16:08:01;22.00;99.90
23723;DHT22;12042;52.136;5.584;2022-07-06T16:10:27;22.00;99.90
23723;DHT22;12042;52.136;5.584;2022-07-06T16:12:54;22.00;99.90
23723;DHT22;12042;52.136;5.584;2022-07-06T16:15:21;21.90;99.90
23723;DHT22;12042;52.136;5.584;2022-07-06T16:17:46;21.90;99.90
23723;DHT22;12042;52.136;5.584;2022-07-06T16:20:12;21.90;99.90
23723;DHT22;12042;52.136;5.584;2022-07-06T16:22:42;22.00;99.90
23723;DHT22;12042;52.136;5.584;2022-07-06T16:25:09;22.00;99.90
23723;DHT22;12042;52.136;5.584;2022-07-06T16:27:36;22.40;99.90
23723;DHT22;12042;52.136;5.584;2022-07-06T16:30:03;22.00;99.90
23723;DHT22;12042;52.136;5.584;2022-07-06T16:32:29;21.90;99.90
23723;DHT22;12042;52.136;5.584;2022-07-06T16:34:56;21.80;99.90
23723;DHT22;12042;52.136;5.584;2022-07-06T16:37:22;21.70;99.90
23723;DHT22;12042;52.136;5.584;2022-07-06T16:39:48;21.90;99.90
23723;DHT22;12042;52.136;5.584;2022-07-06T16:42:13;21.50;99.90
23723;DHT22;12042;52.136;5.584;2022-07-06T16:44:39;21.50;99.90
23723;DHT22;12042;52.136;5.584;2022-07-06T16:47:05;21.50;99.90
23723;DHT22;12042;52.136;5.584;2022-07-06T16:49:30;21.60;99.90
23723;DHT22;12042;52.136;5.584;2022-07-06T16:51:56;21.60;99.90
23723;DHT22;12042;52.136;5.584;2022-07-06T16:54:22;21.60;99.90
23723;DHT22;12042;52.136;5.584;2022-07-06T16:56:47;21.60;99.90
23723;DHT22;12042;52.136;5.584;2022-07-06T16:59:13;21.80;99.90
23723;DHT22;12042;52.136;5.584;2022-07-06T17:01:38;21.80;99.90
23723;DHT22;12042;52.136;5.584;2022-07-06T17:04:04;21.80;99.90
23723;DHT22;12042;52.136;5.584;2022-07-06T17:06:29;21.80;99.90
23723;DHT22;12042;52.136;5.584;2022-07-06T17:08:55;22.00;99.90
23723;DHT22;12042;52.136;5.584;2022-07-06T17:11:21;21.70;99.90
23723;DHT22;12042;52.136;5.584;2022-07-06T17:13:46;21.60;99.90
23723;DHT22;12042;52.136;5.584;2022-07-06T17:16:13;21.60;99.90
23723;DHT22;12042;52.136;5.584;2022-07-06T17:18:39;21.50;99.90
23723;DHT22;12042;52.136;5.584;2022-07-06T17:21:05;21.50;99.90
23723;DHT22;12042;52.136;5.584;2022-07-06T17:23:31;21.50;99.90
23723;DHT22;12042;52.136;5.584;2022-07-06T17:25:56;21.40;99.90
23723;DHT22;12042;52.136;5.584;2022-07-06T17:28:24;21.40;99.90
23723;DHT22;12042;52.136;5.584;2022-07-06T17:30:50;21.30;99.90
23723;DHT22;12042;52.136;5.584;2022-07-06T17:33:16;21.10;99.90
23723;DHT22;12042;52.136;5.584;2022-07-06T17:35:42;21.20;99.90
23723;DHT22;12042;52.136;5.584;2022-07-06T17:38:08;21.10;99.90
23723;DHT22;12042;52.136;5.584;2022-07-06T17:40:34;21.00;99.90
23723;DHT22;12042;52.136;5.584;2022-07-06T17:42:59;21.10;99.90
23723;DHT22;12042;52.136;5.584;2022-07-06T17:45:25;20.90;99.90
23723;DHT22;12042;52.136;5.584;2022-07-06T17:47:51;20.90;99.90
23723;DHT22;12042;52.136;5.584;2022-07-06T17:50:17;20.90;99.90
23723;DHT22;12042;52.136;5.584;2022-07-06T17:52:43;21.00;99.90
23723;DHT22;12042;52.136;5.584;2022-07-06T17:55:09;20.80;99.90
23723;DHT22;12042;52.136;5.584;2022-07-06T17:57:34;20.90;99.90
23723;DHT22;12042;52.136;5.584;2022-07-06T18:00:00;21.10;99.90
23723;DHT22;12042;52.136;5.584;2022-07-06T18:02:26;20.70;99.90
23723;DHT22;12042;52.136;5.584;2022-07-06T18:04:51;20.50;99.90
23723;DHT22;12042;52.136;5.584;2022-07-06T18:07:17;20.40;99.90
23723;DHT22;12042;52.136;5.584;2022-07-06T18:09:42;20.30;99.90
23723;DHT22;12042;52.136;5.584;2022-07-06T18:12:08;20.40;99.90
23723;DHT22;12042;52.136;5.584;2022-07-06T18:14:34;20.50;99.90
23723;DHT22;12042;52.136;5.584;2022-07-06T18:16:59;20.40;99.90
23723;DHT22;12042;52.136;5.584;2022-07-06T18:19:25;20.70;99.90
23723;DHT22;12042;52.136;5.584;2022-07-06T18:21:50;20.30;99.90
23723;DHT22;12042;52.136;5.584;2022-07-06T18:24:16;20.30;99.90
23723;DHT22;12042;52.136;5.584;2022-07-06T18:26:42;20.30;99.90
23723;DHT22;12042;52.136;5.584;2022-07-06T18:29:09;20.40;99.90
23723;DHT22;12042;52.136;5.584;2022-07-06T18:31:38;20.40;99.90
23723;DHT22;12042;52.136;5.584;2022-07-06T18:34:04;20.40;99.90
23723;DHT22;12042;52.136;5.584;2022-07-06T18:36:30;20.30;99.90
23723;DHT22;12042;52.136;5.584;2022-07-06T18:38:57;20.40;99.90
23723;DHT22;12042;52.136;5.584;2022-07-06T18:41:23;20.50;99.90
23723;DHT22;12042;52.136;5.584;2022-07-06T18:43:49;20.50;99.90
23723;DHT22;12042;52.136;5.584;2022-07-06T18:46:15;20.50;99.90
23723;DHT22;12042;52.136;5.584;2022-07-06T18:48:40;20.40;99.90
23723;DHT22;12042;52.136;5.584;2022-07-06T18:51:06;20.50;99.90
23723;DHT22;12042;52.136;5.584;2022-07-06T18:53:32;20.30;99.90
23723;DHT22;12042;52.136;5.584;2022-07-06T18:55:57;20.20;99.90
23723;DHT22;12042;52.136;5.584;2022-07-06T18:58:23;20.20;99.90
23723;DHT22;12042;52.136;5.584;2022-07-06T19:00:48;20.20;99.90
23723;DHT22;12042;52.136;5.584;2022-07-06T19:03:14;20.20;99.90
23723;DHT22;12042;52.136;5.584;2022-07-06T19:05:40;20.10;99.90
23723;DHT22;12042;52.136;5.584;2022-07-06T19:08:05;20.10;99.90
23723;DHT22;12042;52.136;5.584;2022-07-06T19:10:31;20.10;99.90
23723;DHT22;12042;52.136;5.584;2022-07-06T19:12:57;20.20;99.90
23723;DHT22;12042;52.136;5.584;2022-07-06T19:15:23;20.10;99.90
23723;DHT22;12042;52.136;5.584;2022-07-06T19:17:49;20.20;99.90
23723;DHT22;12042;52.136;5.584;2022-07-06T19:20:17;20.10;99.90
23723;DHT22;12042;52.136;5.584;2022-07-06T19:22:43;20.20;99.90
23723;DHT22;12042;52.136;5.584;2022-07-06T19:25:09;20.10;99.90
23723;DHT22;12042;52.136;5.584;2022-07-06T19:27:35;20.10;99.90
23723;DHT22;12042;52.136;5.584;2022-07-06T19:30:01;20.10;99.90
23723;DHT22;12042;52.136;5.584;2022-07-06T19:32:27;20.20;99.90
23723;DHT22;12042;52.136;5.584;2022-07-06T19:34:53;20.60;99.90
23723;DHT22;12042;52.136;5.584;2022-07-06T19:37:18;20.10;99.90
23723;DHT22;12042;52.136;5.584;2022-07-06T19:39:44;20.00;99.90
23723;DHT22;12042;52.136;5.584;2022-07-06T19:42:09;20.00;99.90
23723;DHT22;12042;52.136;5.584;2022-07-06T19:44:35;20.00;99.90
23723;DHT22;12042;52.136;5.584;2022-07-06T19:47:01;20.40;99.90
23723;DHT22;12042;52.136;5.584;2022-07-06T19:49:26;20.00;99.90
23723;DHT22;12042;52.136;5.584;2022-07-06T19:51:52;20.20;99.90
23723;DHT22;12042;52.136;5.584;2022-07-06T19:54:17;19.80;99.90
23723;DHT22;12042;52.136;5.584;2022-07-06T19:56:43;19.80;99.90
23723;DHT22;12042;52.136;5.584;2022-07-06T19:59:10;19.80;99.90
23723;DHT22;12042;52.136;5.584;2022-07-06T20:01:36;19.70;99.90
23723;DHT22;12042;52.136;5.584;2022-07-06T20:04:02;19.70;99.90
23723;DHT22;12042;52.136;5.584;2022-07-06T20:06:28;19.70;99.90
23723;DHT22;12042;52.136;5.584;2022-07-06T20:08:53;19.70;99.90
23723;DHT22;12042;52.136;5.584;2022-07-06T20:11:20;19.70;99.90
23723;DHT22;12042;52.136;5.584;2022-07-06T20:13:46;19.70;99.90
23723;DHT22;12042;52.136;5.584;2022-07-06T20:16:12;19.70;99.90
23723;DHT22;12042;52.136;5.584;2022-07-06T20:18:39;19.80;99.90
23723;DHT22;12042;52.136;5.584;2022-07-06T20:21:05;19.70;99.90
23723;DHT22;12042;52.136;5.584;2022-07-06T20:23:30;19.90;99.90
23723;DHT22;12042;52.136;5.584;2022-07-06T20:25:56;19.70;99.90
23723;DHT22;12042;52.136;5.584;2022-07-06T20:28:23;19.70;99.90
23723;DHT22;12042;52.136;5.584;2022-07-06T20:30:49;19.80;99.90
23723;DHT22;12042;52.136;5.584;2022-07-06T20:33:14;20.10;99.90
23723;DHT22;12042;52.136;5.584;2022-07-06T20:35:40;20.00;99.90
23723;DHT22;12042;52.136;5.584;2022-07-06T20:38:05;19.80;99.90
23723;DHT22;12042;52.136;5.584;2022-07-06T20:40:31;19.70;99.90
23723;DHT22;12042;52.136;5.584;2022-07-06T20:42:57;19.80;99.90
23723;DHT22;12042;52.136;5.584;2022-07-06T20:45:22;19.90;99.90
23723;DHT22;12042;52.136;5.584;2022-07-06T20:47:49;19.80;99.90
23723;DHT22;12042;52.136;5.584;2022-07-06T20:50:15;19.80;99.90
23723;DHT22;12042;52.136;5.584;2022-07-06T20:52:40;19.90;99.90
23723;DHT22;12042;52.136;5.584;2022-07-06T20:55:07;19.80;99.90
23723;DHT22;12042;52.136;5.584;2022-07-06T20:57:33;19.80;99.90
23723;DHT22;12042;52.136;5.584;2022-07-06T20:59:58;19.80;99.90
23723;DHT22;12042;52.136;5.584;2022-07-06T21:02:24;19.70;99.90
23723;DHT22;12042;52.136;5.584;2022-07-06T21:04:49;19.80;99.90
23723;DHT22;12042;52.136;5.584;2022-07-06T21:07:15;19.70;99.90
23723;DHT22;12042;52.136;5.584;2022-07-06T21:09:41;19.60;99.90
23723;DHT22;12042;52.136;5.584;2022-07-06T21:12:07;19.60;99.90
23723;DHT22;12042;52.136;5.584;2022-07-06T21:14:33;19.60;99.90
23723;DHT22;12042;52.136;5.584;2022-07-06T21:16:59;19.60;99.90
23723;DHT22;12042;52.136;5.584;2022-07-06T21:19:25;19.50;99.90
23723;DHT22;12042;52.136;5.584;2022-07-06T21:21:50;19.50;99.90
23723;DHT22;12042;52.136;5.584;2022-07-06T21:24:16;19.50;99.90
23723;DHT22;12042;52.136;5.584;2022-07-06T21:26:41;19.40;99.90